createdAt,value
2019-02-15T00:00:01.399Z,2.00
2019-02-15T00:01:01.394Z,1.99
2019-02-15T00:02:01.393Z,2.03
2019-02-15T00:03:01.592Z,2.07
2019-02-15T00:04:01.247Z,1.95
2019-02-15T00:05:01.697Z,1.93
2019-02-15T00:06:01.200Z,2.03
2019-02-15T00:07:01.196Z,2.00
2019-02-15T00:08:01.145Z,1.97
2019-02-15T00:09:01.234Z,2.06
2019-02-15T00:10:01.364Z,2.00
2019-02-15T00:11:01.062Z,2.11
2019-02-15T00:13:01.004Z,2.14
2019-02-15T00:14:01.000Z,2.29
2019-02-15T00:15:00.957Z,2.28
2019-02-15T00:16:00.944Z,2.36
2019-02-15T00:17:01.283Z,2.42
2019-02-15T00:18:00.868Z,2.37
2019-02-15T00:19:00.871Z,2.36
2019-02-15T00:20:00.827Z,2.45
2019-02-15T00:21:00.897Z,2.40
2019-02-15T00:22:00.799Z,2.43
2019-02-15T00:23:00.782Z,2.33
2019-02-15T00:24:01.018Z,2.40
2019-02-15T00:25:01.563Z,2.25
2019-02-15T00:26:00.721Z,2.19
2019-02-15T00:27:00.630Z,2.10
2019-02-15T00:28:00.595Z,2.03
2019-02-15T00:30:00.564Z,1.84
2019-02-15T00:31:00.841Z,1.80
2019-02-15T00:32:00.506Z,1.77
2019-02-15T00:33:00.463Z,1.69
2019-02-15T00:34:00.437Z,1.62
2019-02-15T00:35:00.479Z,1.59
2019-02-15T00:36:00.424Z,1.55
2019-02-15T00:37:00.367Z,1.46
2019-02-15T00:38:00.646Z,1.44
2019-02-15T00:39:00.654Z,1.41
2019-02-15T00:40:00.463Z,1.42
2019-02-15T00:41:00.247Z,1.44
2019-02-15T00:42:01.727Z,1.36
2019-02-15T00:43:00.235Z,1.36
2019-02-15T00:44:00.342Z,1.31
2019-02-15T00:45:00.594Z,1.30
2019-02-15T00:46:01.047Z,1.26
2019-02-15T00:48:00.061Z,1.17
2019-02-15T00:50:00.029Z,1.10
2019-02-15T00:50:59.977Z,1.10
2019-02-15T00:52:00.202Z,1.16
2019-02-15T00:53:00.020Z,1.21
2019-02-15T00:53:59.901Z,1.35
2019-02-15T00:54:59.895Z,1.27
2019-02-15T00:55:59.962Z,1.36
2019-02-15T00:58:00.110Z,1.27
2019-02-15T00:58:59.823Z,1.26
2019-02-15T00:59:59.762Z,1.13
2019-02-15T01:00:59.721Z,1.20
2019-02-15T01:01:59.922Z,1.18
2019-02-15T01:02:59.669Z,1.08
2019-02-15T01:03:59.948Z,1.09
2019-02-15T01:04:59.678Z,1.08
2019-02-15T01:05:59.582Z,1.03
2019-02-15T01:06:59.641Z,1.03
2019-02-15T01:07:59.685Z,1.03
2019-02-15T01:08:59.555Z,0.96
2019-02-15T01:09:59.790Z,1.00
2019-02-15T01:10:59.448Z,1.10
2019-02-15T01:12:59.448Z,0.98
2019-02-15T01:13:59.389Z,0.94
2019-02-15T01:14:59.328Z,0.99
2019-02-15T01:15:59.572Z,0.96
2019-02-15T01:16:59.276Z,0.99
2019-02-15T01:17:59.265Z,1.02
2019-02-15T01:18:59.235Z,1.09
2019-02-15T01:19:59.201Z,1.02
2019-02-15T01:20:59.173Z,1.06
2019-02-15T01:22:59.477Z,1.17
2019-02-15T01:23:59.104Z,1.16
2019-02-15T01:24:59.063Z,1.17
2019-02-15T01:26:59.008Z,0.94
2019-02-15T01:27:58.989Z,0.94
2019-02-15T01:28:59.202Z,0.98
2019-02-15T01:29:58.927Z,0.96
2019-02-15T01:32:58.839Z,1.18
2019-02-15T01:34:59.035Z,1.16
2019-02-15T01:35:59.062Z,1.18
2019-02-15T01:36:58.785Z,1.10
2019-02-15T01:37:58.711Z,1.10
2019-02-15T01:38:58.695Z,1.06
2019-02-15T01:39:58.650Z,0.92
2019-02-15T01:40:59.070Z,0.92
2019-02-15T01:41:58.894Z,0.90
2019-02-15T01:42:58.574Z,0.90
2019-02-15T01:44:58.512Z,0.84
2019-02-15T01:47:58.778Z,0.73
2019-02-15T01:50:01.428Z,0.67
2019-02-15T01:50:58.367Z,0.62
2019-02-15T01:51:59.298Z,0.69
2019-02-15T01:52:58.314Z,0.62
2019-02-15T01:53:58.302Z,0.63
2019-02-15T01:54:58.502Z,0.51
2019-02-15T01:55:58.212Z,0.53
2019-02-15T01:56:58.191Z,0.56
2019-02-15T01:57:58.210Z,0.48
2019-02-15T01:58:58.157Z,0.51
2019-02-15T01:59:58.097Z,0.43
2019-02-15T02:00:58.074Z,0.50
2019-02-15T02:01:58.343Z,0.55
2019-02-15T02:02:58.063Z,0.44
2019-02-15T02:03:58.002Z,0.45
2019-02-15T02:04:57.964Z,0.47
2019-02-15T02:05:57.970Z,0.40
2019-02-15T02:06:57.935Z,0.41
2019-02-15T02:07:58.030Z,0.33
2019-02-15T02:08:58.196Z,0.32
2019-02-15T02:09:57.843Z,0.36
2019-02-15T02:10:57.800Z,0.30
2019-02-15T02:11:57.819Z,0.45
2019-02-15T02:12:57.748Z,0.37
2019-02-15T02:13:57.724Z,0.50
2019-02-15T02:14:59.191Z,0.53
2019-02-15T02:15:57.669Z,0.62
2019-02-15T02:16:57.888Z,0.62
2019-02-15T02:17:57.602Z,0.56
2019-02-15T02:18:57.586Z,0.53
2019-02-15T02:20:57.819Z,0.50
2019-02-15T02:22:57.548Z,0.41
2019-02-15T02:23:57.464Z,0.40
2019-02-15T02:24:57.417Z,0.43
2019-02-15T02:25:57.387Z,0.44
2019-02-15T02:26:57.655Z,0.43
2019-02-15T02:27:57.338Z,0.30
2019-02-15T02:28:57.320Z,0.36
2019-02-15T02:29:57.278Z,0.33
2019-02-15T02:30:57.249Z,0.40
2019-02-15T02:31:57.231Z,0.25
2019-02-15T02:32:57.482Z,0.29
2019-02-15T02:34:57.137Z,0.25
2019-02-15T02:35:57.114Z,0.18
2019-02-15T02:36:57.091Z,0.26
2019-02-15T02:37:57.102Z,0.26
2019-02-15T02:38:57.279Z,0.20
2019-02-15T02:39:57.001Z,0.18
2019-02-15T02:41:56.937Z,0.25
2019-02-15T02:42:56.932Z,0.15
2019-02-15T02:43:59.695Z,0.25
2019-02-15T02:45:57.133Z,0.22
2019-02-15T02:46:56.840Z,0.22
2019-02-15T02:47:56.892Z,0.26
2019-02-15T02:49:56.722Z,0.20
2019-02-15T02:51:56.994Z,0.23
2019-02-15T02:52:56.634Z,0.20
2019-02-15T02:53:56.614Z,0.23
2019-02-15T02:54:56.584Z,0.15
2019-02-15T02:55:56.567Z,0.12
2019-02-15T02:56:56.526Z,0.07
2019-02-15T02:57:56.537Z,0.09
2019-02-15T02:58:56.740Z,0.15
2019-02-15T02:59:56.450Z,0.14
2019-02-15T03:00:56.414Z,0.27
2019-02-15T03:01:56.395Z,0.43
2019-02-15T03:02:56.358Z,0.27
2019-02-15T03:03:56.328Z,0.50
2019-02-15T03:04:56.480Z,0.51
2019-02-15T03:05:57.233Z,0.47
2019-02-15T03:06:56.348Z,0.47
2019-02-15T03:07:56.242Z,0.44
2019-02-15T03:08:56.189Z,0.36
2019-02-15T03:09:56.176Z,0.40
2019-02-15T03:10:56.138Z,0.26
2019-02-15T03:11:56.106Z,0.25
2019-02-15T03:12:56.670Z,0.18
2019-02-15T03:13:56.143Z,0.23
2019-02-15T03:14:56.081Z,0.23
2019-02-15T03:16:55.978Z,0.20
2019-02-15T03:17:55.998Z,0.25
2019-02-15T03:18:55.918Z,0.17
2019-02-15T03:19:56.186Z,0.22
2019-02-15T03:20:55.885Z,0.14
2019-02-15T03:21:55.863Z,0.17
2019-02-15T03:22:56.114Z,0.22
2019-02-15T03:23:56.155Z,0.18
2019-02-15T03:24:55.963Z,0.17
2019-02-15T03:25:55.989Z,0.27
2019-02-15T03:26:55.944Z,0.22
2019-02-15T03:27:55.683Z,0.27
2019-02-15T03:28:55.649Z,0.17
2019-02-15T03:29:55.612Z,0.15
2019-02-15T03:30:55.651Z,0.23
2019-02-15T03:31:55.560Z,0.29
2019-02-15T03:32:55.545Z,0.23
2019-02-15T03:33:55.822Z,0.18
2019-02-15T03:34:55.503Z,0.27
2019-02-15T03:35:55.458Z,0.22
2019-02-15T03:36:55.420Z,0.20
2019-02-15T03:37:55.415Z,0.14
2019-02-15T03:38:55.363Z,0.14
2019-02-15T03:39:55.662Z,0.23
2019-02-15T03:40:55.314Z,0.29
2019-02-15T03:41:55.281Z,0.20
2019-02-15T03:42:55.296Z,0.29
2019-02-15T03:43:55.366Z,0.25
2019-02-15T03:45:55.463Z,0.20
2019-02-15T03:46:55.138Z,0.09
2019-02-15T03:47:55.108Z,0.15
2019-02-15T03:52:55.273Z,-0.07
2019-02-15T03:53:54.947Z,-0.04
2019-02-15T03:54:54.914Z,-0.11
2019-02-15T03:55:54.891Z,-0.06
2019-02-15T03:56:54.897Z,0.02
2019-02-15T03:57:54.832Z,-0.01
2019-02-15T03:58:54.819Z,0.02
2019-02-15T03:59:54.791Z,0.04
2019-02-15T04:00:54.856Z,-0.03
2019-02-15T04:01:54.734Z,-0.07
2019-02-15T04:02:54.695Z,-0.06
2019-02-15T04:03:54.672Z,-0.11
2019-02-15T04:04:54.945Z,-0.04
2019-02-15T04:05:54.715Z,-0.06
2019-02-15T04:06:54.664Z,-0.01
2019-02-15T04:07:54.607Z,-0.07
2019-02-15T04:08:54.554Z,-0.10
2019-02-15T04:09:54.528Z,0.04
2019-02-15T04:10:54.730Z,-0.03
2019-02-15T04:11:54.439Z,-0.11
2019-02-15T04:12:54.422Z,-0.09
2019-02-15T04:13:54.388Z,-0.06
2019-02-15T04:14:54.492Z,-0.13
2019-02-15T04:15:54.345Z,-0.21
2019-02-15T04:16:54.306Z,-0.24
2019-02-15T04:17:55.011Z,-0.11
2019-02-15T04:18:54.242Z,-0.13
2019-02-15T04:19:54.291Z,-0.13
2019-02-15T04:20:54.201Z,-0.10
2019-02-15T04:21:54.180Z,-0.10
2019-02-15T04:22:54.143Z,0.05
2019-02-15T04:23:54.105Z,0.12
2019-02-15T04:24:54.580Z,0.29
2019-02-15T04:25:54.226Z,0.23
2019-02-15T04:26:54.209Z,0.29
2019-02-15T04:27:54.123Z,0.25
2019-02-15T04:28:54.064Z,0.17
2019-02-15T04:29:54.080Z,0.22
2019-02-15T04:30:54.366Z,0.12
2019-02-15T04:31:54.385Z,0.11
2019-02-15T04:32:53.885Z,0.14
2019-02-15T04:33:53.865Z,0.09
2019-02-15T04:34:53.933Z,0.12
2019-02-15T04:35:53.836Z,0.17
2019-02-15T04:36:53.780Z,0.15
2019-02-15T04:37:53.869Z,0.15
2019-02-15T04:38:54.215Z,0.02
2019-02-15T04:40:53.626Z,-0.09
2019-02-15T04:41:53.654Z,-0.10
2019-02-15T04:42:53.718Z,-0.09
2019-02-15T04:43:53.769Z,-0.01
2019-02-15T04:44:53.718Z,-0.13
2019-02-15T04:45:54.005Z,-0.13
2019-02-15T04:46:53.641Z,-0.10
2019-02-15T04:47:53.612Z,-0.07
2019-02-15T04:49:54.917Z,-0.11
2019-02-15T04:51:53.655Z,-0.22
2019-02-15T04:52:53.298Z,-0.10
2019-02-15T04:53:53.304Z,-0.06
2019-02-15T04:54:53.355Z,-0.10
2019-02-15T04:55:53.213Z,-0.14
2019-02-15T04:56:53.185Z,-0.09
2019-02-15T04:57:53.181Z,-0.14
2019-02-15T04:58:53.289Z,-0.10
2019-02-15T04:59:53.266Z,-0.17
2019-02-15T05:00:53.312Z,-0.24
2019-02-15T05:01:53.044Z,-0.24
2019-02-15T05:02:53.016Z,-0.32
2019-02-15T05:03:53.289Z,-0.40
2019-02-15T05:04:52.964Z,-0.40
2019-02-15T05:05:52.931Z,-0.45
2019-02-15T05:06:52.898Z,-0.45
2019-02-15T05:07:52.881Z,-0.45
2019-02-15T05:08:52.845Z,-0.46
2019-02-15T05:09:53.114Z,-0.49
2019-02-15T05:10:52.797Z,-0.43
2019-02-15T05:11:52.780Z,-0.43
2019-02-15T05:12:52.832Z,-0.47
2019-02-15T05:13:52.758Z,-0.49
2019-02-15T05:14:53.543Z,-0.49
2019-02-15T05:15:52.957Z,-0.52
2019-02-15T05:16:52.624Z,-0.61
2019-02-15T05:17:52.592Z,-0.47
2019-02-15T05:18:52.573Z,-0.67
2019-02-15T05:19:52.544Z,-0.63
2019-02-15T05:20:52.665Z,-0.53
2019-02-15T05:21:52.867Z,-0.61
2019-02-15T05:22:53.138Z,-0.61
2019-02-15T05:23:52.696Z,-0.66
2019-02-15T05:25:53.036Z,-0.68
2019-02-15T05:26:52.407Z,-0.66
2019-02-15T05:27:52.611Z,-0.63
2019-02-15T05:28:52.301Z,-0.61
2019-02-15T05:29:52.275Z,-0.61
2019-02-15T05:30:52.292Z,-0.53
2019-02-15T05:31:52.261Z,-0.66
2019-02-15T05:32:52.192Z,-0.67
2019-02-15T05:33:52.146Z,-0.57
2019-02-15T05:34:52.411Z,-0.64
2019-02-15T05:35:52.098Z,-0.61
2019-02-15T05:36:52.100Z,-0.66
2019-02-15T05:37:52.025Z,-0.63
2019-02-15T05:38:52.012Z,-0.53
2019-02-15T05:39:51.983Z,-0.60
2019-02-15T05:40:52.278Z,-0.60
2019-02-15T05:41:51.923Z,-0.61
2019-02-15T05:42:51.917Z,-0.64
2019-02-15T05:43:51.858Z,-0.64
2019-02-15T05:44:51.921Z,-0.73
2019-02-15T05:45:51.819Z,-0.75
2019-02-15T05:47:52.053Z,-0.78
2019-02-15T05:48:51.729Z,-0.79
2019-02-15T05:50:53.344Z,-0.73
2019-02-15T05:51:52.426Z,-0.81
2019-02-15T05:52:54.186Z,-0.75
2019-02-15T05:53:52.116Z,-0.73
2019-02-15T05:54:51.834Z,-0.78
2019-02-15T05:55:51.533Z,-0.81
2019-02-15T05:56:51.509Z,-0.75
2019-02-15T05:57:53.366Z,-0.68
2019-02-15T06:03:52.500Z,-0.84
2019-02-15T06:04:51.275Z,-0.84
2019-02-15T06:05:51.287Z,-0.79
2019-02-15T06:06:51.210Z,-0.76
2019-02-15T06:07:51.179Z,-0.75
2019-02-15T06:08:51.257Z,-0.76
2019-02-15T06:09:51.135Z,-0.78
2019-02-15T06:10:51.346Z,-0.81
2019-02-15T06:11:51.277Z,-0.79
2019-02-15T06:12:51.204Z,-0.82
2019-02-15T06:13:51.024Z,-0.86
2019-02-15T06:14:51.013Z,-0.82
2019-02-15T06:15:51.039Z,-0.81
2019-02-15T06:16:52.332Z,-0.71
2019-02-15T06:17:50.980Z,-0.63
2019-02-15T06:19:50.893Z,-0.61
2019-02-15T06:20:50.831Z,-0.66
2019-02-15T06:21:50.797Z,-0.49
2019-02-15T06:22:51.085Z,-0.58
2019-02-15T06:23:50.843Z,-0.53
2019-02-15T06:24:50.831Z,-0.47
2019-02-15T06:25:50.686Z,-0.50
2019-02-15T06:26:50.696Z,-0.55
2019-02-15T06:27:50.635Z,-0.55
2019-02-15T06:28:50.904Z,-0.50
2019-02-15T06:29:50.571Z,-0.71
2019-02-15T06:30:50.534Z,-0.63
2019-02-15T06:31:51.976Z,-0.61
2019-02-15T06:32:50.585Z,-0.55
2019-02-15T06:33:50.457Z,-0.52
2019-02-15T06:34:50.712Z,-0.43
2019-02-15T06:35:50.390Z,-0.50
2019-02-15T06:36:50.360Z,-0.49
2019-02-15T06:37:50.331Z,-0.50
2019-02-15T06:38:50.299Z,-0.50
2019-02-15T06:39:50.271Z,-0.58
2019-02-15T06:40:50.554Z,-0.52
2019-02-15T06:41:50.753Z,-0.55
2019-02-15T06:42:50.195Z,-0.42
2019-02-15T06:43:50.167Z,-0.45
2019-02-15T06:44:50.181Z,-0.34
2019-02-15T06:45:50.144Z,-0.35
2019-02-15T06:46:50.403Z,-0.35
2019-02-15T06:47:50.051Z,-0.40
2019-02-15T06:49:50.609Z,-0.49
2019-02-15T06:50:50.117Z,-0.57
2019-02-15T06:51:49.938Z,-0.49
2019-02-15T06:52:50.270Z,-0.43
2019-02-15T06:53:50.282Z,-0.55
2019-02-15T06:54:49.930Z,-0.52
2019-02-15T06:55:49.840Z,-0.60
2019-02-15T06:56:49.871Z,-0.63
2019-02-15T06:57:49.769Z,-0.58
2019-02-15T06:58:50.686Z,-0.49
2019-02-15T06:59:49.772Z,-0.49
2019-02-15T07:00:49.726Z,-0.42
2019-02-15T07:01:49.826Z,-0.35
2019-02-15T07:02:50.311Z,-0.35
2019-02-15T07:03:49.655Z,-0.27
2019-02-15T07:04:50.022Z,-0.21
2019-02-15T07:05:49.785Z,-0.11
2019-02-15T07:06:49.672Z,-0.04
2019-02-15T07:07:49.487Z,0.04
2019-02-15T07:08:49.527Z,0.11
2019-02-15T07:09:49.486Z,0.18
2019-02-15T07:10:49.882Z,0.36
2019-02-15T07:11:49.369Z,0.47
2019-02-15T07:13:49.313Z,0.44
2019-02-15T07:14:49.386Z,0.51
2019-02-15T07:15:49.765Z,0.50
2019-02-15T07:16:49.684Z,0.45
2019-02-15T07:17:49.444Z,0.50
2019-02-15T07:18:49.491Z,0.59
2019-02-15T07:19:49.156Z,0.55
2019-02-15T07:20:49.117Z,0.56
2019-02-15T07:21:49.091Z,0.51
2019-02-15T07:22:49.378Z,0.48
2019-02-15T07:23:49.055Z,0.44
2019-02-15T07:24:49.023Z,0.67
2019-02-15T07:25:48.986Z,0.67
2019-02-15T07:26:48.953Z,0.88
2019-02-15T07:27:48.935Z,0.88
2019-02-15T07:28:49.196Z,0.98
2019-02-15T07:29:48.889Z,1.02
2019-02-15T07:30:48.846Z,1.12
2019-02-15T07:31:48.829Z,1.16
2019-02-15T07:32:49.119Z,1.35
2019-02-15T07:33:48.910Z,1.36
2019-02-15T07:34:48.829Z,1.39
2019-02-15T07:35:49.025Z,1.42
2019-02-15T07:36:48.677Z,1.48
2019-02-15T07:37:48.649Z,1.64
2019-02-15T07:38:48.653Z,1.66
2019-02-15T07:39:48.592Z,1.80
2019-02-15T07:40:48.567Z,1.91
2019-02-15T07:41:48.856Z,2.01
2019-02-15T07:42:48.523Z,2.11
2019-02-15T07:43:48.488Z,2.35
2019-02-15T07:44:48.465Z,2.58
2019-02-15T07:45:48.424Z,2.78
2019-02-15T07:46:48.400Z,2.81
2019-02-15T07:47:49.144Z,2.91
2019-02-15T07:48:48.360Z,3.00
2019-02-15T07:49:48.329Z,3.25
2019-02-15T07:50:49.092Z,3.54
2019-02-15T07:51:48.284Z,3.70
2019-02-15T07:52:48.259Z,3.92
2019-02-15T07:53:48.529Z,4.26
2019-02-15T07:54:48.184Z,4.49
2019-02-15T07:55:48.181Z,4.75
2019-02-15T07:56:48.149Z,4.96
2019-02-15T07:57:48.104Z,5.27
2019-02-15T07:58:48.104Z,5.51
2019-02-15T07:59:48.358Z,5.59
2019-02-15T08:00:48.117Z,5.80
2019-02-15T08:01:48.072Z,5.95
2019-02-15T08:02:48.065Z,6.05
2019-02-15T08:03:48.068Z,6.16
2019-02-15T08:04:48.027Z,6.46
2019-02-15T08:05:47.904Z,6.52
2019-02-15T08:06:48.192Z,6.70
2019-02-15T08:07:48.064Z,6.88
2019-02-15T08:08:47.927Z,6.91
2019-02-15T08:09:47.810Z,7.11
2019-02-15T08:10:48.107Z,7.36
2019-02-15T08:11:48.076Z,7.36
2019-02-15T08:12:48.060Z,7.57
2019-02-15T08:13:47.718Z,7.77
2019-02-15T08:14:47.747Z,7.76
2019-02-15T08:16:47.690Z,7.96
2019-02-15T08:17:47.770Z,8.16
2019-02-15T08:18:47.899Z,8.19
2019-02-15T08:19:47.576Z,8.35
2019-02-15T08:20:47.563Z,8.50
2019-02-15T08:21:47.528Z,8.50
2019-02-15T08:22:47.496Z,8.70
2019-02-15T08:23:47.490Z,8.65
2019-02-15T08:24:47.720Z,8.78
2019-02-15T08:25:47.430Z,8.81
2019-02-15T08:26:47.409Z,8.88
2019-02-15T08:27:47.387Z,8.86
2019-02-15T08:28:47.360Z,9.06
2019-02-15T08:29:47.327Z,9.12
2019-02-15T08:30:47.561Z,9.03
2019-02-15T08:31:47.951Z,8.77
2019-02-15T08:32:47.281Z,8.77
2019-02-15T08:33:47.351Z,8.80
2019-02-15T08:34:47.221Z,8.95
2019-02-15T08:35:47.224Z,9.01
2019-02-15T08:36:47.522Z,9.33
2019-02-15T08:37:47.169Z,9.45
2019-02-15T08:38:47.238Z,9.47
2019-02-15T08:39:47.117Z,9.37
2019-02-15T08:40:47.108Z,9.45
2019-02-15T08:42:00.260Z,9.54
2019-02-15T08:42:47.384Z,9.55
2019-02-15T08:43:47.099Z,9.67
2019-02-15T08:44:47.027Z,9.98
2019-02-15T08:45:47.074Z,10.17
2019-02-15T08:46:46.978Z,10.35
2019-02-15T08:47:46.961Z,10.42
2019-02-15T08:48:47.483Z,10.62
2019-02-15T08:51:46.868Z,11.18
2019-02-15T08:53:46.843Z,11.13
2019-02-15T08:56:46.785Z,10.83
2019-02-15T08:57:46.862Z,10.75
2019-02-15T08:58:46.732Z,10.76
2019-02-15T08:59:46.716Z,10.86
2019-02-15T09:00:46.691Z,10.86
2019-02-15T09:01:47.016Z,11.30
2019-02-15T09:02:46.648Z,11.51
2019-02-15T09:03:46.645Z,11.79
2019-02-15T09:04:46.653Z,11.85
2019-02-15T09:05:46.681Z,11.82
2019-02-15T09:06:46.652Z,12.00
2019-02-15T09:07:46.862Z,12.05
2019-02-15T09:08:46.630Z,12.30
2019-02-15T09:09:46.572Z,12.29
2019-02-15T09:10:46.491Z,12.61
2019-02-15T09:11:46.480Z,12.86
2019-02-15T09:12:46.463Z,12.86
2019-02-15T09:13:46.975Z,13.09
2019-02-15T09:14:46.425Z,13.20
2019-02-15T09:15:46.409Z,13.30
2019-02-15T09:16:46.400Z,13.46
2019-02-15T09:17:46.373Z,13.78
2019-02-15T09:18:46.364Z,14.12
2019-02-15T09:19:46.632Z,14.30
2019-02-15T09:20:46.634Z,14.49
2019-02-15T09:21:46.310Z,14.74
2019-02-15T09:22:46.293Z,14.93
2019-02-15T09:23:46.277Z,14.96
2019-02-15T09:24:46.243Z,15.20
2019-02-15T09:25:46.565Z,15.38
2019-02-15T09:26:46.284Z,15.58
2019-02-15T09:27:46.233Z,15.66
2019-02-15T09:28:46.186Z,15.87
2019-02-15T09:30:46.144Z,15.93
2019-02-15T09:31:46.446Z,15.90
2019-02-15T09:32:46.418Z,15.87
2019-02-15T09:33:46.179Z,15.73
2019-02-15T09:34:46.087Z,15.84
2019-02-15T09:35:46.082Z,15.95
2019-02-15T09:36:46.615Z,15.90
2019-02-15T09:37:46.471Z,16.06
2019-02-15T09:38:46.257Z,15.69
2019-02-15T09:39:46.126Z,15.87
2019-02-15T09:40:45.993Z,16.14
2019-02-15T09:41:45.966Z,16.16
2019-02-15T09:42:45.950Z,16.02
2019-02-15T09:44:45.913Z,15.58
2019-02-15T09:45:45.913Z,15.32
2019-02-15T09:46:45.891Z,15.65
2019-02-15T09:47:45.928Z,15.70
2019-02-15T09:48:45.870Z,15.58
2019-02-15T09:49:46.803Z,15.84
2019-02-15T09:50:45.842Z,16.03
2019-02-15T09:51:45.818Z,15.87
2019-02-15T09:52:45.826Z,15.76
2019-02-15T09:53:45.798Z,15.78
2019-02-15T09:54:45.772Z,16.18
2019-02-15T09:56:46.076Z,16.02
2019-02-15T09:57:45.728Z,16.44
2019-02-15T09:58:45.711Z,16.44
2019-02-15T09:59:45.736Z,16.69
2019-02-15T10:00:45.718Z,16.76
2019-02-15T10:01:45.743Z,16.43
2019-02-15T10:02:45.951Z,16.70
2019-02-15T10:03:45.680Z,16.74
2019-02-15T10:04:45.629Z,16.70
2019-02-15T10:05:45.685Z,16.61
2019-02-15T10:06:45.611Z,16.09
2019-02-15T10:07:45.685Z,15.88
2019-02-15T10:08:45.579Z,16.06
2019-02-15T10:09:45.867Z,16.54
2019-02-15T10:10:45.541Z,16.77
2019-02-15T10:11:45.589Z,16.29
2019-02-15T10:12:45.553Z,16.21
2019-02-15T10:13:45.501Z,15.99
2019-02-15T10:15:45.777Z,16.59
2019-02-15T10:16:45.465Z,16.16
2019-02-15T10:17:45.488Z,16.47
2019-02-15T10:18:45.463Z,16.82
2019-02-15T10:19:45.449Z,17.06
2019-02-15T10:20:45.428Z,17.24
2019-02-15T10:21:45.697Z,16.99
2019-02-15T10:22:45.395Z,17.65
2019-02-15T10:23:45.398Z,17.76
2019-02-15T10:24:45.401Z,18.15
2019-02-15T10:25:45.714Z,18.21
2019-02-15T10:26:45.352Z,17.81
2019-02-15T10:28:45.609Z,18.24
2019-02-15T10:29:45.325Z,18.27
2019-02-15T10:30:45.278Z,18.23
2019-02-15T10:31:45.721Z,18.13
2019-02-15T10:32:45.253Z,18.68
2019-02-15T10:33:45.266Z,18.88
2019-02-15T10:34:45.598Z,19.23
2019-02-15T10:35:45.263Z,19.47
2019-02-15T10:36:45.218Z,19.41
2019-02-15T10:37:45.226Z,19.04
2019-02-15T10:38:45.231Z,19.12
2019-02-15T10:41:45.399Z,19.42
2019-02-15T10:42:45.174Z,19.68
2019-02-15T10:43:45.125Z,19.39
2019-02-15T10:44:45.220Z,19.16
2019-02-15T10:45:45.114Z,19.04
2019-02-15T10:46:45.220Z,18.39
2019-02-15T10:50:45.338Z,19.38
2019-02-15T10:51:45.051Z,19.71
2019-02-15T10:52:45.036Z,19.92
2019-02-15T10:53:45.093Z,19.96
2019-02-15T10:54:45.011Z,20.07
2019-02-15T10:57:45.401Z,18.86
2019-02-15T10:59:44.966Z,18.93
2019-02-15T11:00:44.959Z,18.79
2019-02-15T11:01:44.962Z,18.78
2019-02-15T11:02:45.260Z,18.94
2019-02-15T11:03:45.253Z,18.70
2019-02-15T11:04:44.944Z,18.85
2019-02-15T11:05:44.907Z,19.17
2019-02-15T11:06:45.454Z,19.20
2019-02-15T11:07:44.947Z,19.56
2019-02-15T11:09:45.170Z,19.52
2019-02-15T11:10:44.883Z,18.82
2019-02-15T11:11:44.862Z,18.89
2019-02-15T11:12:44.867Z,19.09
2019-02-15T11:13:44.827Z,19.12
2019-02-15T11:14:44.828Z,19.35
2019-02-15T11:15:45.151Z,19.52
2019-02-15T11:16:47.333Z,19.27
2019-02-15T11:17:44.812Z,18.98
2019-02-15T11:18:44.787Z,19.45
2019-02-15T11:19:44.884Z,19.96
2019-02-15T11:20:44.768Z,20.30
2019-02-15T11:21:45.100Z,20.71
2019-02-15T11:23:44.755Z,21.14
2019-02-15T11:24:44.731Z,20.52
2019-02-15T11:25:44.726Z,20.55
2019-02-15T11:26:44.715Z,20.70
2019-02-15T11:27:45.004Z,21.08
2019-02-15T11:28:44.694Z,21.18
2019-02-15T11:29:44.703Z,20.60
2019-02-15T11:30:44.791Z,20.56
2019-02-15T11:31:44.704Z,21.00
2019-02-15T11:32:44.789Z,20.90
2019-02-15T11:33:45.007Z,20.65
2019-02-15T11:34:44.694Z,20.89
2019-02-15T11:35:44.645Z,21.13
2019-02-15T11:36:44.620Z,20.56
2019-02-15T11:37:44.642Z,20.50
2019-02-15T11:38:44.731Z,20.44
2019-02-15T11:40:44.602Z,20.17
2019-02-15T11:41:44.578Z,20.32
2019-02-15T11:42:44.576Z,20.52
2019-02-15T11:43:44.569Z,20.80
2019-02-15T11:44:44.556Z,20.75
2019-02-15T11:45:44.882Z,20.74
2019-02-15T11:46:44.531Z,21.26
2019-02-15T11:47:44.538Z,21.63
2019-02-15T11:48:44.540Z,22.01
2019-02-15T11:49:44.511Z,22.19
2019-02-15T11:50:44.527Z,22.11
2019-02-15T11:51:44.808Z,22.31
2019-02-15T11:52:44.841Z,22.58
2019-02-15T11:53:44.484Z,22.11
2019-02-15T11:54:44.485Z,21.62
2019-02-15T11:55:44.469Z,21.66
2019-02-15T11:57:44.936Z,21.41
2019-02-15T11:58:44.525Z,21.41
2019-02-15T11:59:44.435Z,21.20
2019-02-15T12:00:44.609Z,21.40
2019-02-15T12:01:44.423Z,20.86
2019-02-15T12:02:44.417Z,20.90
2019-02-15T12:03:44.781Z,21.13
2019-02-15T12:04:44.391Z,21.43
2019-02-15T12:05:44.427Z,21.56
2019-02-15T12:07:44.414Z,21.59
2019-02-15T12:08:44.358Z,21.55
2019-02-15T12:09:44.688Z,21.81
2019-02-15T12:10:44.361Z,21.35
2019-02-15T12:11:44.348Z,21.56
2019-02-15T12:12:44.349Z,21.78
2019-02-15T12:13:44.324Z,21.75
2019-02-15T12:14:44.338Z,21.81
2019-02-15T12:15:47.398Z,21.66
2019-02-15T12:16:44.326Z,21.67
2019-02-15T12:17:44.342Z,21.43
2019-02-15T12:18:44.279Z,20.95
2019-02-15T12:19:44.360Z,21.07
2019-02-15T12:20:44.540Z,21.48
2019-02-15T12:21:44.276Z,21.73
2019-02-15T12:22:44.266Z,21.55
2019-02-15T12:24:44.557Z,20.37
2019-02-15T12:25:44.242Z,20.77
2019-02-15T12:26:45.663Z,20.77
2019-02-15T12:27:44.225Z,20.90
2019-02-15T12:28:44.205Z,21.19
2019-02-15T12:29:44.240Z,21.40
2019-02-15T12:31:45.325Z,21.08
2019-02-15T12:32:45.505Z,20.95
2019-02-15T12:33:45.172Z,21.05
2019-02-15T12:34:44.429Z,21.51
2019-02-15T12:35:44.170Z,21.38
2019-02-15T12:36:44.142Z,21.74
2019-02-15T12:37:44.140Z,21.55
2019-02-15T12:38:44.446Z,21.66
2019-02-15T12:39:44.308Z,21.75
2019-02-15T12:40:44.114Z,21.65
2019-02-15T12:41:44.099Z,21.80
2019-02-15T12:42:44.355Z,21.43
2019-02-15T12:43:44.106Z,21.73
2019-02-15T12:44:44.410Z,21.45
2019-02-15T12:45:44.192Z,21.84
2019-02-15T12:46:44.149Z,21.77
2019-02-15T12:47:44.054Z,21.48
2019-02-15T12:48:47.080Z,21.58
2019-02-15T12:49:44.044Z,21.69
2019-02-15T12:50:44.353Z,21.55
2019-02-15T12:51:44.048Z,21.53
2019-02-15T12:52:44.041Z,21.45
2019-02-15T12:53:44.019Z,21.98
2019-02-15T12:54:44.098Z,21.94
2019-02-15T12:55:45.058Z,22.11
2019-02-15T12:56:44.782Z,22.16
2019-02-15T12:57:43.976Z,22.13
2019-02-15T12:58:43.971Z,22.48
2019-02-15T12:59:43.957Z,22.37
2019-02-15T13:00:43.954Z,21.67
2019-02-15T13:01:43.956Z,21.77
2019-02-15T13:02:44.363Z,21.96
2019-02-15T13:03:43.986Z,22.41
2019-02-15T13:04:43.926Z,22.74
2019-02-15T13:05:43.923Z,22.66
2019-02-15T13:06:44.052Z,22.77
2019-02-15T13:07:43.918Z,22.91
2019-02-15T13:08:44.314Z,22.13
2019-02-15T13:09:43.904Z,22.00
2019-02-15T13:10:43.914Z,22.19
2019-02-15T13:11:43.854Z,21.56
2019-02-15T13:13:43.902Z,21.55
2019-02-15T13:14:44.143Z,21.55
2019-02-15T13:15:44.227Z,21.69
2019-02-15T13:17:43.984Z,21.34
2019-02-15T13:18:44.301Z,21.50
2019-02-15T13:19:43.801Z,21.98
2019-02-15T13:20:44.086Z,21.56
2019-02-15T13:21:43.938Z,21.75
2019-02-15T13:22:43.820Z,22.27
2019-02-15T13:23:43.775Z,22.34
2019-02-15T13:26:44.560Z,23.46
2019-02-15T13:27:43.802Z,23.23
2019-02-15T13:28:43.939Z,22.91
2019-02-15T13:29:43.785Z,22.85
2019-02-15T13:30:43.714Z,22.71
2019-02-15T13:31:43.799Z,22.78
2019-02-15T13:32:44.012Z,22.83
2019-02-15T13:33:43.691Z,22.38
2019-02-15T13:34:43.676Z,21.75
2019-02-15T13:35:43.696Z,22.25
2019-02-15T13:37:43.702Z,22.34
2019-02-15T13:38:43.948Z,22.88
2019-02-15T13:39:43.641Z,22.99
2019-02-15T13:40:43.641Z,23.22
2019-02-15T13:41:43.628Z,22.55
2019-02-15T13:42:43.621Z,22.43
2019-02-15T13:43:43.621Z,22.23
2019-02-15T13:44:43.604Z,22.25
2019-02-15T13:45:44.001Z,22.58
2019-02-15T13:46:43.612Z,22.88
2019-02-15T13:47:43.586Z,22.89
2019-02-15T13:48:43.578Z,23.03
2019-02-15T13:49:43.591Z,22.19
2019-02-15T13:50:43.577Z,22.13
2019-02-15T13:51:43.854Z,21.77
2019-02-15T13:52:43.567Z,21.84
2019-02-15T13:53:43.542Z,21.84
2019-02-15T13:55:43.590Z,21.66
2019-02-15T13:56:43.557Z,21.96
2019-02-15T13:59:44.141Z,22.73
2019-02-15T14:00:43.479Z,22.86
2019-02-15T14:01:43.478Z,22.99
2019-02-15T14:02:43.580Z,22.95
2019-02-15T14:03:43.474Z,22.71
2019-02-15T14:04:43.470Z,22.09
2019-02-15T14:05:43.753Z,21.16
2019-02-15T14:06:43.421Z,20.75
2019-02-15T14:07:43.574Z,20.65
2019-02-15T14:08:43.490Z,21.14
2019-02-15T14:10:43.391Z,21.26
2019-02-15T14:14:43.660Z,20.98
2019-02-15T14:15:43.492Z,20.36
2019-02-15T14:16:43.356Z,20.34
2019-02-15T14:17:45.583Z,20.92
2019-02-15T14:18:43.323Z,21.13
2019-02-15T14:20:43.880Z,20.83
2019-02-15T14:23:44.801Z,20.80
2019-02-15T14:27:43.553Z,20.82
2019-02-15T14:28:43.271Z,20.82